Etusivu
METAR-TAF:

METAR-TAF

Lentoasemat :

Turku, Suomi

Turun lentoasema

Leveyspiiri: 60-31N, Pituuspiiri: 022-16E, korkeus merenpinnasta: 49 m

Tämänhetkinen sää

Tämä raportti tehtiin 18 tuntia ja 26 minuuttia sitten, kello 14.50 UTC
Tuuli 3 kn koillisesta
Lämpötila -7°C
Kosteus 73%
Ilmanpaine 1027 hPa
Näkyvyys 10 km tai enemmän
ei pilviä alle 1500 m:ssä eikä cumulonimbus-pilviä

METAR: EFTU 201450Z AUTO 04003KT CAVOK M07/M11 Q1027

Aika: 11:16 (09:16 UTC)

Sääennuste

Tämä raportti tehtiin 18 tuntia ja 45 minuuttia sitten, kello 14.31 UTC
Ennuste voimassa 20. päivästä klo 15 UTC - 21. päivään klo 15 UTC
Tuuli 4 kn koillisesta
Näkyvyys 10 km tai enemmän
ei pilviä alle 1500 m:ssä eikä cumulonimbus-pilviä
Todennäköisyys 30% :
Ajoittain
21. päivästä klo 00 UTC - 21. päivään klo 08 UTC
Näkyvyys: 4000 m
heikkoa lumisadetta

TAF: EFTU 201431Z 2015/2115 04004KT CAVOK PROB30 TEMPO 2100/2108 4000 -SN

Säähavainnot ja -ennusteet yli 4000 lentoasemalta (METAR- ja TAF-raportit).

Käytössä olevat sääasemat on merkitty karttaan keltaisilla ja punaisilla pisteillä.

Aseta hiiri pisteen päälle nähdäksesi sääaseman nimen.

Klikkaa sitten nähdäksesi säähavainnot ja -ennusteet.

Kartan vaihtaminen: klikkaa mustalla rastilla varustettuja vihreitä pisteitä, niin voit zoomata sisään; viivalla varustettua vihreää pistettä, niin voit zoomata ulos tai vihreitä nuolia, niin pääset viereisille kartoille.


METAR-TAF: